sensor_id;sensor_type;location;lat;lon;timestamp;P1;durP1;ratioP1;P2;durP2;ratioP2
27618;SDS011;15039;50.830;4.730;2022-09-27T00:00:04;6.45;;;1.33;;
27618;SDS011;15039;50.830;4.730;2022-09-27T00:02:30;3.50;;;1.10;;
27618;SDS011;15039;50.830;4.730;2022-09-27T00:04:58;4.68;;;1.20;;
27618;SDS011;15039;50.830;4.730;2022-09-27T00:07:24;3.00;;;0.93;;
27618;SDS011;15039;50.830;4.730;2022-09-27T00:09:49;4.22;;;1.30;;
27618;SDS011;15039;50.830;4.730;2022-09-27T00:12:15;7.63;;;1.35;;
27618;SDS011;15039;50.830;4.730;2022-09-27T00:14:41;3.13;;;1.25;;
27618;SDS011;15039;50.830;4.730;2022-09-27T00:17:08;5.18;;;1.50;;
27618;SDS011;15039;50.830;4.730;2022-09-27T00:19:42;2.90;;;0.88;;
27618;SDS011;15039;50.830;4.730;2022-09-27T00:22:11;3.92;;;1.00;;
27618;SDS011;15039;50.830;4.730;2022-09-27T00:24:37;2.05;;;0.93;;
27618;SDS011;15039;50.830;4.730;2022-09-27T00:27:03;2.47;;;0.90;;
27618;SDS011;15039;50.830;4.730;2022-09-27T00:29:28;5.57;;;1.30;;
27618;SDS011;15039;50.830;4.730;2022-09-27T00:31:54;2.72;;;1.10;;
27618;SDS011;15039;50.830;4.730;2022-09-27T00:34:24;2.03;;;1.25;;
27618;SDS011;15039;50.830;4.730;2022-09-27T00:36:52;3.25;;;1.08;;
27618;SDS011;15039;50.830;4.730;2022-09-27T00:41:51;2.65;;;1.10;;
27618;SDS011;15039;50.830;4.730;2022-09-27T00:50:08;6.40;;;1.70;;
27618;SDS011;15039;50.830;4.730;2022-09-27T00:52:49;2.45;;;1.85;;
27618;SDS011;15039;50.830;4.730;2022-09-27T00:55:42;5.03;;;1.65;;
27618;SDS011;15039;50.830;4.730;2022-09-27T00:58:21;3.70;;;1.70;;
27618;SDS011;15039;50.830;4.730;2022-09-27T01:00:53;3.83;;;1.65;;
27618;SDS011;15039;50.830;4.730;2022-09-27T01:03:28;5.18;;;1.60;;
27618;SDS011;15039;50.830;4.730;2022-09-27T01:06:06;3.13;;;1.30;;
27618;SDS011;15039;50.830;4.730;2022-09-27T01:08:35;3.42;;;1.40;;
27618;SDS011;15039;50.830;4.730;2022-09-27T01:11:24;3.88;;;1.63;;
27618;SDS011;15039;50.830;4.730;2022-09-27T01:14:22;3.15;;;1.40;;
27618;SDS011;15039;50.830;4.730;2022-09-27T01:19:33;4.13;;;1.65;;
27618;SDS011;15039;50.830;4.730;2022-09-27T01:22:22;6.88;;;1.92;;
27618;SDS011;15039;50.830;4.730;2022-09-27T01:33:11;4.50;;;1.00;;
27618;SDS011;15039;50.830;4.730;2022-09-27T01:38:50;2.80;;;0.90;;
27618;SDS011;15039;50.830;4.730;2022-09-27T01:44:08;1.70;;;0.95;;
27618;SDS011;15039;50.830;4.730;2022-09-27T01:46:54;3.25;;;0.95;;
27618;SDS011;15039;50.830;4.730;2022-09-27T01:49:38;2.20;;;1.00;;
27618;SDS011;15039;50.830;4.730;2022-09-27T01:52:11;3.00;;;0.95;;
27618;SDS011;15039;50.830;4.730;2022-09-27T01:54:41;4.47;;;1.17;;
27618;SDS011;15039;50.830;4.730;2022-09-27T01:57:10;4.47;;;0.88;;
27618;SDS011;15039;50.830;4.730;2022-09-27T01:59:43;2.55;;;1.27;;
27618;SDS011;15039;50.830;4.730;2022-09-27T02:04:58;2.90;;;1.10;;
27618;SDS011;15039;50.830;4.730;2022-09-27T02:07:28;4.05;;;1.20;;
27618;SDS011;15039;50.830;4.730;2022-09-27T02:10:02;4.10;;;1.20;;
27618;SDS011;15039;50.830;4.730;2022-09-27T02:12:34;3.38;;;1.10;;
27618;SDS011;15039;50.830;4.730;2022-09-27T02:15:07;4.78;;;1.60;;
27618;SDS011;15039;50.830;4.730;2022-09-27T02:17:43;4.90;;;1.33;;
27618;SDS011;15039;50.830;4.730;2022-09-27T02:20:38;3.75;;;1.08;;
27618;SDS011;15039;50.830;4.730;2022-09-27T02:26:00;2.13;;;0.82;;
27618;SDS011;15039;50.830;4.730;2022-09-27T02:31:32;3.40;;;0.98;;
27618;SDS011;15039;50.830;4.730;2022-09-27T02:36:40;2.50;;;1.00;;
27618;SDS011;15039;50.830;4.730;2022-09-27T02:39:06;6.28;;;1.33;;
27618;SDS011;15039;50.830;4.730;2022-09-27T02:41:32;2.63;;;1.00;;
27618;SDS011;15039;50.830;4.730;2022-09-27T02:43:58;5.20;;;1.63;;
27618;SDS011;15039;50.830;4.730;2022-09-27T03:00:19;2.90;;;1.20;;
27618;SDS011;15039;50.830;4.730;2022-09-27T03:02:58;4.55;;;1.20;;
27618;SDS011;15039;50.830;4.730;2022-09-27T03:05:33;3.60;;;1.00;;
27618;SDS011;15039;50.830;4.730;2022-09-27T03:08:12;2.10;;;0.90;;
27618;SDS011;15039;50.830;4.730;2022-09-27T03:10:39;2.83;;;0.75;;
27618;SDS011;15039;50.830;4.730;2022-09-27T03:13:05;2.10;;;0.98;;
27618;SDS011;15039;50.830;4.730;2022-09-27T03:15:31;4.43;;;0.85;;
27618;SDS011;15039;50.830;4.730;2022-09-27T03:17:56;3.67;;;0.70;;
27618;SDS011;15039;50.830;4.730;2022-09-27T03:20:22;2.72;;;0.82;;
27618;SDS011;15039;50.830;4.730;2022-09-27T03:22:48;4.15;;;1.00;;
27618;SDS011;15039;50.830;4.730;2022-09-27T03:25:13;1.92;;;0.85;;
27618;SDS011;15039;50.830;4.730;2022-09-27T03:27:39;1.63;;;0.70;;
27618;SDS011;15039;50.830;4.730;2022-09-27T03:30:07;1.42;;;0.68;;
27618;SDS011;15039;50.830;4.730;2022-09-27T03:32:35;2.05;;;0.65;;
27618;SDS011;15039;50.830;4.730;2022-09-27T03:35:00;2.65;;;0.80;;
27618;SDS011;15039;50.830;4.730;2022-09-27T03:37:26;3.28;;;0.95;;
27618;SDS011;15039;50.830;4.730;2022-09-27T03:39:53;3.58;;;1.20;;
27618;SDS011;15039;50.830;4.730;2022-09-27T03:42:19;1.85;;;1.00;;
27618;SDS011;15039;50.830;4.730;2022-09-27T03:44:44;1.92;;;1.10;;
27618;SDS011;15039;50.830;4.730;2022-09-27T03:47:10;1.63;;;0.70;;
27618;SDS011;15039;50.830;4.730;2022-09-27T03:49:36;1.38;;;0.63;;
27618;SDS011;15039;50.830;4.730;2022-09-27T03:52:01;2.88;;;1.00;;
27618;SDS011;15039;50.830;4.730;2022-09-27T03:54:27;1.45;;;0.80;;
27618;SDS011;15039;50.830;4.730;2022-09-27T03:56:52;2.03;;;0.82;;
27618;SDS011;15039;50.830;4.730;2022-09-27T03:59:18;4.05;;;1.50;;
27618;SDS011;15039;50.830;4.730;2022-09-27T04:01:44;2.70;;;0.90;;
27618;SDS011;15039;50.830;4.730;2022-09-27T04:04:09;2.00;;;0.88;;
27618;SDS011;15039;50.830;4.730;2022-09-27T04:06:35;3.65;;;0.95;;
27618;SDS011;15039;50.830;4.730;2022-09-27T04:09:01;2.33;;;0.95;;
27618;SDS011;15039;50.830;4.730;2022-09-27T04:11:27;5.90;;;0.80;;
27618;SDS011;15039;50.830;4.730;2022-09-27T04:13:53;2.63;;;0.82;;
27618;SDS011;15039;50.830;4.730;2022-09-27T04:16:20;1.65;;;0.90;;
27618;SDS011;15039;50.830;4.730;2022-09-27T04:18:46;3.47;;;1.50;;
27618;SDS011;15039;50.830;4.730;2022-09-27T04:21:12;1.45;;;0.88;;
27618;SDS011;15039;50.830;4.730;2022-09-27T04:23:38;3.63;;;0.90;;
27618;SDS011;15039;50.830;4.730;2022-09-27T04:26:03;1.73;;;1.00;;
27618;SDS011;15039;50.830;4.730;2022-09-27T04:28:30;1.13;;;0.80;;
27618;SDS011;15039;50.830;4.730;2022-09-27T04:30:56;3.47;;;1.00;;
27618;SDS011;15039;50.830;4.730;2022-09-27T04:33:22;7.63;;;1.55;;
27618;SDS011;15039;50.830;4.730;2022-09-27T04:35:48;2.72;;;1.10;;
27618;SDS011;15039;50.830;4.730;2022-09-27T04:38:32;2.25;;;1.10;;
27618;SDS011;15039;50.830;4.730;2022-09-27T04:40:58;5.68;;;1.05;;
27618;SDS011;15039;50.830;4.730;2022-09-27T04:43:25;6.30;;;1.60;;
27618;SDS011;15039;50.830;4.730;2022-09-27T04:45:52;3.35;;;1.40;;
27618;SDS011;15039;50.830;4.730;2022-09-27T04:48:18;2.47;;;1.27;;
27618;SDS011;15039;50.830;4.730;2022-09-27T04:50:44;6.50;;;1.50;;
27618;SDS011;15039;50.830;4.730;2022-09-27T04:53:12;2.92;;;1.50;;
27618;SDS011;15039;50.830;4.730;2022-09-27T04:55:39;3.28;;;1.30;;
27618;SDS011;15039;50.830;4.730;2022-09-27T05:00:33;2.78;;;1.63;;
27618;SDS011;15039;50.830;4.730;2022-09-27T05:03:00;3.97;;;2.10;;
27618;SDS011;15039;50.830;4.730;2022-09-27T05:05:25;3.00;;;1.80;;
27618;SDS011;15039;50.830;4.730;2022-09-27T05:07:52;2.03;;;1.52;;
27618;SDS011;15039;50.830;4.730;2022-09-27T05:10:17;4.50;;;2.20;;
27618;SDS011;15039;50.830;4.730;2022-09-27T05:12:43;3.67;;;1.75;;
27618;SDS011;15039;50.830;4.730;2022-09-27T05:15:09;3.95;;;1.95;;
27618;SDS011;15039;50.830;4.730;2022-09-27T05:17:34;3.60;;;2.05;;
27618;SDS011;15039;50.830;4.730;2022-09-27T05:20:01;4.82;;;1.88;;
27618;SDS011;15039;50.830;4.730;2022-09-27T05:22:27;5.88;;;1.85;;
27618;SDS011;15039;50.830;4.730;2022-09-27T05:24:54;3.75;;;2.13;;
27618;SDS011;15039;50.830;4.730;2022-09-27T05:27:19;4.00;;;2.55;;
27618;SDS011;15039;50.830;4.730;2022-09-27T05:29:46;3.10;;;2.50;;
27618;SDS011;15039;50.830;4.730;2022-09-27T05:32:11;4.65;;;2.50;;
27618;SDS011;15039;50.830;4.730;2022-09-27T05:34:37;5.18;;;2.92;;
27618;SDS011;15039;50.830;4.730;2022-09-27T05:37:03;5.82;;;3.40;;
27618;SDS011;15039;50.830;4.730;2022-09-27T05:39:29;4.60;;;2.70;;
27618;SDS011;15039;50.830;4.730;2022-09-27T05:41:54;5.45;;;3.25;;
27618;SDS011;15039;50.830;4.730;2022-09-27T05:44:21;5.00;;;3.08;;
27618;SDS011;15039;50.830;4.730;2022-09-27T05:46:47;3.97;;;3.00;;
27618;SDS011;15039;50.830;4.730;2022-09-27T05:49:13;3.70;;;3.00;;
27618;SDS011;15039;50.830;4.730;2022-09-27T05:51:38;4.82;;;2.92;;
27618;SDS011;15039;50.830;4.730;2022-09-27T05:54:04;5.38;;;3.20;;
27618;SDS011;15039;50.830;4.730;2022-09-27T05:56:30;2.90;;;2.60;;
27618;SDS011;15039;50.830;4.730;2022-09-27T05:58:56;3.40;;;3.00;;
27618;SDS011;15039;50.830;4.730;2022-09-27T06:01:22;4.20;;;2.78;;
27618;SDS011;15039;50.830;4.730;2022-09-27T06:03:52;4.53;;;2.90;;
27618;SDS011;15039;50.830;4.730;2022-09-27T06:06:19;3.42;;;2.80;;
27618;SDS011;15039;50.830;4.730;2022-09-27T06:08:49;5.97;;;3.20;;
27618;SDS011;15039;50.830;4.730;2022-09-27T06:11:14;3.10;;;2.78;;
27618;SDS011;15039;50.830;4.730;2022-09-27T06:13:40;3.55;;;3.08;;
27618;SDS011;15039;50.830;4.730;2022-09-27T06:16:07;4.57;;;3.40;;
27618;SDS011;15039;50.830;4.730;2022-09-27T06:18:34;6.82;;;3.40;;
27618;SDS011;15039;50.830;4.730;2022-09-27T06:21:01;4.88;;;3.65;;
27618;SDS011;15039;50.830;4.730;2022-09-27T06:23:28;3.08;;;2.85;;
27618;SDS011;15039;50.830;4.730;2022-09-27T06:25:59;4.68;;;3.00;;
27618;SDS011;15039;50.830;4.730;2022-09-27T06:28:27;6.47;;;3.17;;
27618;SDS011;15039;50.830;4.730;2022-09-27T06:30:53;7.30;;;3.72;;
27618;SDS011;15039;50.830;4.730;2022-09-27T06:33:19;4.25;;;3.00;;
27618;SDS011;15039;50.830;4.730;2022-09-27T06:35:45;6.40;;;3.30;;
27618;SDS011;15039;50.830;4.730;2022-09-27T06:38:13;3.60;;;3.17;;
27618;SDS011;15039;50.830;4.730;2022-09-27T06:40:40;3.13;;;2.92;;
27618;SDS011;15039;50.830;4.730;2022-09-27T06:45:36;4.97;;;2.90;;
27618;SDS011;15039;50.830;4.730;2022-09-27T06:48:02;4.72;;;2.72;;
27618;SDS011;15039;50.830;4.730;2022-09-27T06:50:30;3.10;;;2.53;;
27618;SDS011;15039;50.830;4.730;2022-09-27T06:52:57;3.38;;;2.65;;
27618;SDS011;15039;50.830;4.730;2022-09-27T06:55:23;3.53;;;2.60;;
27618;SDS011;15039;50.830;4.730;2022-09-27T06:57:53;2.72;;;2.38;;
27618;SDS011;15039;50.830;4.730;2022-09-27T07:00:37;2.60;;;2.20;;
27618;SDS011;15039;50.830;4.730;2022-09-27T07:03:03;2.88;;;2.40;;
27618;SDS011;15039;50.830;4.730;2022-09-27T07:05:29;4.80;;;2.40;;
27618;SDS011;15039;50.830;4.730;2022-09-27T07:07:55;4.15;;;2.40;;
27618;SDS011;15039;50.830;4.730;2022-09-27T07:10:26;3.85;;;2.67;;
27618;SDS011;15039;50.830;4.730;2022-09-27T07:12:54;3.05;;;2.40;;
27618;SDS011;15039;50.830;4.730;2022-09-27T07:15:22;3.70;;;2.40;;
27618;SDS011;15039;50.830;4.730;2022-09-27T07:17:57;2.50;;;2.22;;
27618;SDS011;15039;50.830;4.730;2022-09-27T07:20:27;2.75;;;2.38;;
27618;SDS011;15039;50.830;4.730;2022-09-27T07:22:56;3.08;;;2.58;;
27618;SDS011;15039;50.830;4.730;2022-09-27T07:25:22;3.03;;;2.08;;
27618;SDS011;15039;50.830;4.730;2022-09-27T07:27:49;4.47;;;2.20;;
27618;SDS011;15039;50.830;4.730;2022-09-27T07:30:16;2.65;;;2.20;;
27618;SDS011;15039;50.830;4.730;2022-09-27T07:32:42;3.33;;;2.10;;
27618;SDS011;15039;50.830;4.730;2022-09-27T07:35:09;7.78;;;2.20;;
27618;SDS011;15039;50.830;4.730;2022-09-27T07:37:36;3.10;;;1.90;;
27618;SDS011;15039;50.830;4.730;2022-09-27T07:40:02;2.80;;;2.60;;
27618;SDS011;15039;50.830;4.730;2022-09-27T07:42:31;3.08;;;2.25;;
27618;SDS011;15039;50.830;4.730;2022-09-27T07:44:57;2.55;;;2.20;;
27618;SDS011;15039;50.830;4.730;2022-09-27T07:47:23;4.63;;;2.72;;
27618;SDS011;15039;50.830;4.730;2022-09-27T07:49:50;5.82;;;2.30;;
27618;SDS011;15039;50.830;4.730;2022-09-27T07:52:20;5.18;;;2.38;;
27618;SDS011;15039;50.830;4.730;2022-09-27T07:54:46;2.85;;;2.15;;
27618;SDS011;15039;50.830;4.730;2022-09-27T07:57:12;3.67;;;2.10;;
27618;SDS011;15039;50.830;4.730;2022-09-27T07:59:39;4.05;;;2.47;;
27618;SDS011;15039;50.830;4.730;2022-09-27T08:02:05;3.33;;;2.42;;
27618;SDS011;15039;50.830;4.730;2022-09-27T08:04:35;3.13;;;2.33;;
27618;SDS011;15039;50.830;4.730;2022-09-27T08:07:00;2.55;;;2.20;;
27618;SDS011;15039;50.830;4.730;2022-09-27T08:09:26;3.05;;;1.83;;
27618;SDS011;15039;50.830;4.730;2022-09-27T08:11:54;1.88;;;1.75;;
27618;SDS011;15039;50.830;4.730;2022-09-27T08:14:22;3.10;;;1.70;;
27618;SDS011;15039;50.830;4.730;2022-09-27T08:16:48;2.90;;;1.70;;
27618;SDS011;15039;50.830;4.730;2022-09-27T08:19:15;4.28;;;1.40;;
27618;SDS011;15039;50.830;4.730;2022-09-27T08:21:43;1.67;;;1.35;;
27618;SDS011;15039;50.830;4.730;2022-09-27T08:24:08;2.10;;;1.30;;
27618;SDS011;15039;50.830;4.730;2022-09-27T08:26:35;2.25;;;1.50;;
27618;SDS011;15039;50.830;4.730;2022-09-27T08:29:00;2.90;;;1.73;;
27618;SDS011;15039;50.830;4.730;2022-09-27T08:31:26;3.67;;;1.45;;
27618;SDS011;15039;50.830;4.730;2022-09-27T08:33:52;3.10;;;1.55;;
27618;SDS011;15039;50.830;4.730;2022-09-27T08:36:17;2.85;;;1.58;;
27618;SDS011;15039;50.830;4.730;2022-09-27T08:38:47;2.80;;;1.38;;
27618;SDS011;15039;50.830;4.730;2022-09-27T08:41:23;2.45;;;1.42;;
27618;SDS011;15039;50.830;4.730;2022-09-27T08:52:31;1.95;;;1.20;;
27618;SDS011;15039;50.830;4.730;2022-09-27T08:55:05;3.00;;;1.27;;
27618;SDS011;15039;50.830;4.730;2022-09-27T08:57:48;1.65;;;1.25;;
27618;SDS011;15039;50.830;4.730;2022-09-27T09:00:17;1.13;;;1.00;;
27618;SDS011;15039;50.830;4.730;2022-09-27T09:02:43;2.70;;;1.20;;
27618;SDS011;15039;50.830;4.730;2022-09-27T09:05:14;1.73;;;1.15;;
27618;SDS011;15039;50.830;4.730;2022-09-27T09:08:01;3.88;;;1.20;;
27618;SDS011;15039;50.830;4.730;2022-09-27T09:19:03;2.20;;;1.23;;
27618;SDS011;15039;50.830;4.730;2022-09-27T09:30:03;2.55;;;1.10;;
27618;SDS011;15039;50.830;4.730;2022-09-27T09:35:27;3.20;;;1.20;;
27618;SDS011;15039;50.830;4.730;2022-09-27T09:38:02;2.13;;;1.10;;
27618;SDS011;15039;50.830;4.730;2022-09-27T09:40:35;3.00;;;1.13;;
27618;SDS011;15039;50.830;4.730;2022-09-27T09:43:17;1.60;;;0.90;;
27618;SDS011;15039;50.830;4.730;2022-09-27T09:45:50;1.08;;;1.00;;
27618;SDS011;15039;50.830;4.730;2022-09-27T09:51:04;2.20;;;1.27;;
27618;SDS011;15039;50.830;4.730;2022-09-27T09:53:39;1.70;;;1.20;;
27618;SDS011;15039;50.830;4.730;2022-09-27T09:58:58;2.65;;;1.20;;
27618;SDS011;15039;50.830;4.730;2022-09-27T10:01:32;1.27;;;1.17;;
27618;SDS011;15039;50.830;4.730;2022-09-27T10:04:14;1.90;;;0.80;;
27618;SDS011;15039;50.830;4.730;2022-09-27T10:06:44;2.17;;;1.20;;
27618;SDS011;15039;50.830;4.730;2022-09-27T10:09:11;1.02;;;0.75;;
27618;SDS011;15039;50.830;4.730;2022-09-27T10:11:40;0.60;;;0.60;;
27618;SDS011;15039;50.830;4.730;2022-09-27T10:14:11;2.53;;;0.80;;
27618;SDS011;15039;50.830;4.730;2022-09-27T10:16:44;1.70;;;0.80;;
27618;SDS011;15039;50.830;4.730;2022-09-27T10:19:12;2.17;;;0.80;;
27618;SDS011;15039;50.830;4.730;2022-09-27T10:21:42;1.55;;;0.65;;
27618;SDS011;15039;50.830;4.730;2022-09-27T10:24:13;2.80;;;1.15;;
27618;SDS011;15039;50.830;4.730;2022-09-27T10:26:41;3.70;;;1.00;;
27618;SDS011;15039;50.830;4.730;2022-09-27T10:31:42;3.50;;;1.23;;
27618;SDS011;15039;50.830;4.730;2022-09-27T10:34:26;4.47;;;1.48;;
27618;SDS011;15039;50.830;4.730;2022-09-27T10:37:05;3.30;;;1.00;;
27618;SDS011;15039;50.830;4.730;2022-09-27T10:39:41;2.80;;;0.90;;
27618;SDS011;15039;50.830;4.730;2022-09-27T10:47:46;1.35;;;0.80;;
27618;SDS011;15039;50.830;4.730;2022-09-27T10:50:17;4.32;;;1.08;;
27618;SDS011;15039;50.830;4.730;2022-09-27T10:52:59;2.50;;;1.05;;
27618;SDS011;15039;50.830;4.730;2022-09-27T10:55:31;1.73;;;1.05;;
27618;SDS011;15039;50.830;4.730;2022-09-27T11:00:29;3.00;;;0.93;;
27618;SDS011;15039;50.830;4.730;2022-09-27T11:03:06;3.20;;;1.15;;
27618;SDS011;15039;50.830;4.730;2022-09-27T11:05:38;10.05;;;1.40;;
27618;SDS011;15039;50.830;4.730;2022-09-27T11:10:42;2.13;;;1.00;;
27618;SDS011;15039;50.830;4.730;2022-09-27T11:13:18;3.95;;;1.50;;
27618;SDS011;15039;50.830;4.730;2022-09-27T11:24:06;2.78;;;1.30;;
27618;SDS011;15039;50.830;4.730;2022-09-27T11:27:47;3.60;;;1.30;;
27618;SDS011;15039;50.830;4.730;2022-09-27T11:30:11;4.40;;;1.40;;
27618;SDS011;15039;50.830;4.730;2022-09-27T11:33:06;5.22;;;1.55;;
27618;SDS011;15039;50.830;4.730;2022-09-27T11:35:58;5.03;;;1.20;;
27618;SDS011;15039;50.830;4.730;2022-09-27T11:46:35;3.15;;;1.40;;
27618;SDS011;15039;50.830;4.730;2022-09-27T11:49:19;2.90;;;1.25;;
27618;SDS011;15039;50.830;4.730;2022-09-27T11:54:25;3.50;;;1.02;;
27618;SDS011;15039;50.830;4.730;2022-09-27T12:07:41;3.00;;;0.85;;
27618;SDS011;15039;50.830;4.730;2022-09-27T12:10:24;1.08;;;0.40;;
27618;SDS011;15039;50.830;4.730;2022-09-27T12:12:51;0.75;;;0.40;;
27618;SDS011;15039;50.830;4.730;2022-09-27T12:15:21;2.50;;;0.85;;
27618;SDS011;15039;50.830;4.730;2022-09-27T12:17:53;0.88;;;0.60;;
27618;SDS011;15039;50.830;4.730;2022-09-27T12:20:34;0.88;;;0.50;;
27618;SDS011;15039;50.830;4.730;2022-09-27T12:23:03;0.68;;;0.68;;
27618;SDS011;15039;50.830;4.730;2022-09-27T12:25:36;2.03;;;0.70;;
27618;SDS011;15039;50.830;4.730;2022-09-27T12:30:43;5.85;;;0.70;;
27618;SDS011;15039;50.830;4.730;2022-09-27T12:33:22;3.13;;;0.90;;
27618;SDS011;15039;50.830;4.730;2022-09-27T12:35:56;3.08;;;1.10;;
27618;SDS011;15039;50.830;4.730;2022-09-27T12:41:04;2.53;;;0.63;;
27618;SDS011;15039;50.830;4.730;2022-09-27T12:43:35;2.45;;;0.65;;
27618;SDS011;15039;50.830;4.730;2022-09-27T12:46:26;4.55;;;1.00;;
27618;SDS011;15039;50.830;4.730;2022-09-27T12:51:35;3.75;;;1.05;;
27618;SDS011;15039;50.830;4.730;2022-09-27T13:02:35;3.58;;;1.00;;
27618;SDS011;15039;50.830;4.730;2022-09-27T13:10:42;3.30;;;0.90;;
27618;SDS011;15039;50.830;4.730;2022-09-27T13:13:22;4.20;;;0.90;;
27618;SDS011;15039;50.830;4.730;2022-09-27T13:15:52;1.37;;;1.00;;
27618;SDS011;15039;50.830;4.730;2022-09-27T13:21:07;1.65;;;0.82;;
27618;SDS011;15039;50.830;4.730;2022-09-27T13:26:43;4.13;;;0.90;;
27618;SDS011;15039;50.830;4.730;2022-09-27T13:29:21;3.30;;;1.10;;
27618;SDS011;15039;50.830;4.730;2022-09-27T13:45:50;4.38;;;1.13;;
27618;SDS011;15039;50.830;4.730;2022-09-27T13:49:00;2.00;;;0.90;;
27618;SDS011;15039;50.830;4.730;2022-09-27T13:51:19;1.17;;;0.55;;
27618;SDS011;15039;50.830;4.730;2022-09-27T13:54:00;2.38;;;0.80;;
27618;SDS011;15039;50.830;4.730;2022-09-27T13:59:12;3.00;;;0.93;;
27618;SDS011;15039;50.830;4.730;2022-09-27T14:01:51;1.55;;;1.02;;
27618;SDS011;15039;50.830;4.730;2022-09-27T14:04:34;2.33;;;0.88;;
27618;SDS011;15039;50.830;4.730;2022-09-27T14:07:07;5.40;;;1.00;;
27618;SDS011;15039;50.830;4.730;2022-09-27T14:09:38;3.85;;;1.00;;
27618;SDS011;15039;50.830;4.730;2022-09-27T14:12:09;2.20;;;1.00;;
27618;SDS011;15039;50.830;4.730;2022-09-27T14:14:47;2.10;;;0.70;;
27618;SDS011;15039;50.830;4.730;2022-09-27T14:17:14;1.30;;;0.80;;
27618;SDS011;15039;50.830;4.730;2022-09-27T14:19:42;1.63;;;0.90;;
27618;SDS011;15039;50.830;4.730;2022-09-27T14:22:15;4.15;;;1.17;;
27618;SDS011;15039;50.830;4.730;2022-09-27T14:24:45;3.53;;;1.15;;
27618;SDS011;15039;50.830;4.730;2022-09-27T14:27:12;3.03;;;1.00;;
27618;SDS011;15039;50.830;4.730;2022-09-27T14:29:50;4.90;;;1.20;;
27618;SDS011;15039;50.830;4.730;2022-09-27T14:32:27;3.72;;;1.00;;
27618;SDS011;15039;50.830;4.730;2022-09-27T14:35:02;2.58;;;1.00;;
27618;SDS011;15039;50.830;4.730;2022-09-27T14:37:56;2.45;;;0.88;;
27618;SDS011;15039;50.830;4.730;2022-09-27T14:40:26;2.28;;;0.93;;
27618;SDS011;15039;50.830;4.730;2022-09-27T14:42:57;2.85;;;1.13;;
27618;SDS011;15039;50.830;4.730;2022-09-27T14:48:00;3.05;;;1.05;;
27618;SDS011;15039;50.830;4.730;2022-09-27T14:50:27;2.70;;;1.10;;
27618;SDS011;15039;50.830;4.730;2022-09-27T14:52:54;2.92;;;1.20;;
27618;SDS011;15039;50.830;4.730;2022-09-27T14:55:23;5.88;;;1.40;;
27618;SDS011;15039;50.830;4.730;2022-09-27T14:57:53;3.90;;;1.13;;
27618;SDS011;15039;50.830;4.730;2022-09-27T15:00:27;4.47;;;1.27;;
27618;SDS011;15039;50.830;4.730;2022-09-27T15:02:56;3.13;;;1.10;;
27618;SDS011;15039;50.830;4.730;2022-09-27T15:05:25;3.92;;;1.15;;
27618;SDS011;15039;50.830;4.730;2022-09-27T15:07:53;5.10;;;1.23;;
27618;SDS011;15039;50.830;4.730;2022-09-27T15:10:22;5.75;;;1.40;;
27618;SDS011;15039;50.830;4.730;2022-09-27T15:12:55;4.32;;;1.25;;
27618;SDS011;15039;50.830;4.730;2022-09-27T15:15:24;4.43;;;1.25;;
27618;SDS011;15039;50.830;4.730;2022-09-27T15:17:55;3.20;;;1.33;;
27618;SDS011;15039;50.830;4.730;2022-09-27T15:20:23;3.40;;;1.20;;
27618;SDS011;15039;50.830;4.730;2022-09-27T15:22:52;2.63;;;1.48;;
27618;SDS011;15039;50.830;4.730;2022-09-27T15:25:21;1.38;;;1.02;;
27618;SDS011;15039;50.830;4.730;2022-09-27T15:28:03;3.33;;;1.10;;
27618;SDS011;15039;50.830;4.730;2022-09-27T15:33:00;3.35;;;1.17;;
27618;SDS011;15039;50.830;4.730;2022-09-27T15:35:28;3.50;;;0.93;;
27618;SDS011;15039;50.830;4.730;2022-09-27T15:38:15;3.58;;;1.20;;
27618;SDS011;15039;50.830;4.730;2022-09-27T15:43:30;2.90;;;1.95;;
27618;SDS011;15039;50.830;4.730;2022-09-27T15:46:00;3.90;;;1.95;;
27618;SDS011;15039;50.830;4.730;2022-09-27T15:50:56;2.30;;;1.25;;
27618;SDS011;15039;50.830;4.730;2022-09-27T15:55:57;3.22;;;0.95;;
27618;SDS011;15039;50.830;4.730;2022-09-27T15:58:23;4.78;;;1.20;;
27618;SDS011;15039;50.830;4.730;2022-09-27T16:00:53;3.92;;;1.45;;
27618;SDS011;15039;50.830;4.730;2022-09-27T16:03:20;1.33;;;0.90;;
27618;SDS011;15039;50.830;4.730;2022-09-27T16:05:46;1.85;;;0.98;;
27618;SDS011;15039;50.830;4.730;2022-09-27T16:08:12;1.95;;;1.02;;
27618;SDS011;15039;50.830;4.730;2022-09-27T16:10:38;3.47;;;0.90;;
27618;SDS011;15039;50.830;4.730;2022-09-27T16:13:09;2.05;;;0.75;;
27618;SDS011;15039;50.830;4.730;2022-09-27T16:15:35;3.53;;;1.25;;
27618;SDS011;15039;50.830;4.730;2022-09-27T16:18:01;2.30;;;0.88;;
27618;SDS011;15039;50.830;4.730;2022-09-27T16:20:27;2.10;;;0.85;;
27618;SDS011;15039;50.830;4.730;2022-09-27T16:22:53;2.72;;;1.50;;
27618;SDS011;15039;50.830;4.730;2022-09-27T16:25:20;1.80;;;0.80;;
27618;SDS011;15039;50.830;4.730;2022-09-27T16:27:46;1.40;;;0.75;;
27618;SDS011;15039;50.830;4.730;2022-09-27T16:30:12;4.00;;;1.50;;
27618;SDS011;15039;50.830;4.730;2022-09-27T16:32:39;4.95;;;1.10;;
27618;SDS011;15039;50.830;4.730;2022-09-27T16:35:06;3.30;;;1.50;;
27618;SDS011;15039;50.830;4.730;2022-09-27T16:37:32;2.03;;;1.55;;
27618;SDS011;15039;50.830;4.730;2022-09-27T16:39:58;6.65;;;2.25;;
27618;SDS011;15039;50.830;4.730;2022-09-27T16:42:24;3.47;;;2.22;;
27618;SDS011;15039;50.830;4.730;2022-09-27T16:44:51;3.35;;;1.80;;
27618;SDS011;15039;50.830;4.730;2022-09-27T16:47:18;3.80;;;1.80;;
27618;SDS011;15039;50.830;4.730;2022-09-27T16:49:44;8.30;;;2.15;;
27618;SDS011;15039;50.830;4.730;2022-09-27T16:52:28;4.72;;;2.25;;
27618;SDS011;15039;50.830;4.730;2022-09-27T16:54:58;4.30;;;2.10;;
27618;SDS011;15039;50.830;4.730;2022-09-27T16:57:24;3.83;;;1.65;;
27618;SDS011;15039;50.830;4.730;2022-09-27T16:59:52;5.28;;;2.40;;
27618;SDS011;15039;50.830;4.730;2022-09-27T17:02:20;3.63;;;2.03;;
27618;SDS011;15039;50.830;4.730;2022-09-27T17:04:46;4.07;;;2.50;;
27618;SDS011;15039;50.830;4.730;2022-09-27T17:07:11;6.80;;;3.13;;
27618;SDS011;15039;50.830;4.730;2022-09-27T17:09:37;4.80;;;2.78;;
27618;SDS011;15039;50.830;4.730;2022-09-27T17:12:04;3.33;;;2.70;;
27618;SDS011;15039;50.830;4.730;2022-09-27T17:14:30;6.18;;;2.60;;
27618;SDS011;15039;50.830;4.730;2022-09-27T17:16:56;6.40;;;2.38;;
27618;SDS011;15039;50.830;4.730;2022-09-27T17:19:22;6.63;;;3.67;;
27618;SDS011;15039;50.830;4.730;2022-09-27T17:21:48;5.13;;;2.97;;
27618;SDS011;15039;50.830;4.730;2022-09-27T17:24:14;4.93;;;3.05;;
27618;SDS011;15039;50.830;4.730;2022-09-27T17:26:40;5.32;;;3.13;;
27618;SDS011;15039;50.830;4.730;2022-09-27T17:29:06;5.55;;;3.40;;
27618;SDS011;15039;50.830;4.730;2022-09-27T17:31:35;7.25;;;2.70;;
27618;SDS011;15039;50.830;4.730;2022-09-27T17:34:02;3.67;;;3.10;;
27618;SDS011;15039;50.830;4.730;2022-09-27T17:36:29;7.60;;;2.67;;
27618;SDS011;15039;50.830;4.730;2022-09-27T17:38:59;6.20;;;2.70;;
27618;SDS011;15039;50.830;4.730;2022-09-27T17:41:26;4.38;;;2.85;;
27618;SDS011;15039;50.830;4.730;2022-09-27T17:43:56;4.05;;;2.92;;
27618;SDS011;15039;50.830;4.730;2022-09-27T17:46:28;7.50;;;3.85;;
27618;SDS011;15039;50.830;4.730;2022-09-27T17:48:55;3.97;;;3.05;;
27618;SDS011;15039;50.830;4.730;2022-09-27T17:51:40;5.90;;;3.80;;
27618;SDS011;15039;50.830;4.730;2022-09-27T17:54:09;4.90;;;3.60;;
27618;SDS011;15039;50.830;4.730;2022-09-27T17:56:38;12.20;;;5.05;;
27618;SDS011;15039;50.830;4.730;2022-09-27T17:59:06;6.45;;;3.55;;
27618;SDS011;15039;50.830;4.730;2022-09-27T18:01:33;10.30;;;4.25;;
27618;SDS011;15039;50.830;4.730;2022-09-27T18:04:02;6.22;;;3.70;;
27618;SDS011;15039;50.830;4.730;2022-09-27T18:06:29;7.63;;;3.55;;
27618;SDS011;15039;50.830;4.730;2022-09-27T18:08:55;7.13;;;3.03;;
27618;SDS011;15039;50.830;4.730;2022-09-27T18:11:22;3.53;;;2.10;;
27618;SDS011;15039;50.830;4.730;2022-09-27T18:13:52;2.72;;;1.40;;